Decoded Metar for CYWK (WABUSH in NL, CANADA) (IATA:YWK) | Meteo·Mobile Aviation Weather
aviador You're here:

CYWK Decoded Metar

WABUSH in NL, CANADA
Report Time2019-10-21 07:52:00
UTC Time2019-10-21 07:59:20
Flight Rules lifr LIFR
Wind170° at 04 kt
W.Decomp.*RWY 18: 3.9 kt HW 0.8 kt RCW
Visibility3219 m
Phenomena:Mist
Clouds:Broken 001 Hf
Expected CloudBase > 400 ft AGL from Temp-Dew spread
Ceiling100 ft
Temp-5°C (ISA -16)
Dew Point-6°C (93% RH)
AAT-9.1°C
QNH1018 hPa
Density Alt-322 ft
Elevation1,808 ft
Report Wrong Elevation
Raw Report
SPECI CYWK 210752Z AUTO 17004KT 2SM BR BKN001 M05/M06 A3006 RMK SLP210=

Extra information for CYWK:More info

Metar Taf Metar & Taf Last 4 Metars F.Rules Stats Wind Profile Meteogram Temp Stats Airport Information Weather charts Add Link Nearby VenuesMetar ALERT Operation Metar Decoded Social comments